Station Historical Data
Daily Summary for May 23, 2012 Units:  Both    English   Metric
« Previous Day
Next Day »
Daily Weekly Monthly Yearly Custom
  High: Low: Average:
Temperature: 80.4 °F /  26.9 °C 50.8 °F /  10.4 °C 67.4 °F /  19.7 °C
Dew Point: 60.9 °F /  16.1 °C 49.0 °F /  9.4 °C 54.6 °F /  12.6 °C
Humidity: 95% 38% 67%
Wind Speed: 9.0mph /  14.5km/h - 1.7mph /  2.7km/h
Wind Gust: 11.0mph /  17.7km/h - -
Wind- - SSE
Pressure: 29.88 in /  1011.7 hPa 29.79 in /  1008.7 hPa -
Precipitation: 0.00 in /  0 mm    
Historical Graphs
 
 
Tabular Data for May 23, 2012
Time Temperature Dew Point Pressure Wind Wind Speed Wind Gust Humidity Rainfall Rate (Hourly) Conditions
00:00 60.4 °F /  15.8 °C 53.5 °F /  11.9 °C 29.87in /  1011.4hPa North 1.0mph /  1.6km/h 1.0mph /  1.6km/h 78% 0.00in /  0mm
00:01 60.5 °F /  15.8 °C 53.6 °F /  12 °C 29.87in /  1011.4hPa North 1.0mph /  1.6km/h 1.0mph /  1.6km/h 78% 0.00in /  0mm
00:06 60.6 °F /  15.9 °C 53.7 °F /  12.1 °C 29.87in /  1011.4hPa Calm     78% 0.00in /  0mm
00:11 60.5 °F /  15.8 °C 53.3 °F /  11.8 °C 29.87in /  1011.4hPa Calm   1.0mph /  1.6km/h 77% 0.00in /  0mm
00:14 60.2 °F /  15.7 °C 53.7 °F /  12.1 °C 29.87in /  1011.4hPa Calm     79% 0.00in /  0mm
00:19 59.8 °F /  15.4 °C 53.3 °F /  11.8 °C 29.87in /  1011.4hPa Calm   1.0mph /  1.6km/h 79% 0.00in /  0mm
00:24 59.6 °F /  15.3 °C 53.1 °F /  11.7 °C 29.87in /  1011.4hPa Calm     79% 0.00in /  0mm
00:30 59.5 °F /  15.3 °C 53.0 °F /  11.7 °C 29.87in /  1011.4hPa Calm   1.0mph /  1.6km/h 79% 0.00in /  0mm
00:35 59.5 °F /  15.3 °C 53.0 °F /  11.7 °C 29.87in /  1011.4hPa Calm     79% 0.00in /  0mm
00:40 59.2 °F /  15.1 °C 52.7 °F /  11.5 °C 29.87in /  1011.4hPa Calm   1.0mph /  1.6km/h 79% 0.00in /  0mm
00:45 59.3 °F /  15.2 °C 52.5 °F /  11.4 °C 29.87in /  1011.4hPa Calm   1.0mph /  1.6km/h 78% 0.00in /  0mm
00:50 59.6 °F /  15.3 °C 52.4 °F /  11.3 °C 29.87in /  1011.4hPa NNE 1.0mph /  1.6km/h 1.0mph /  1.6km/h 77% 0.00in /  0mm
00:55 59.7 °F /  15.4 °C 52.5 °F /  11.4 °C 29.87in /  1011.4hPa Calm   1.0mph /  1.6km/h 77% 0.00in /  0mm
01:00 59.7 °F /  15.4 °C 52.5 °F /  11.4 °C 29.87in /  1011.4hPa NNE 1.0mph /  1.6km/h 2.0mph /  3.2km/h 77% 0.00in /  0mm
01:05 59.6 °F /  15.3 °C 52.4 °F /  11.3 °C 29.87in /  1011.4hPa Calm   2.0mph /  3.2km/h 77% 0.00in /  0mm
01:10 59.5 °F /  15.3 °C 52.3 °F /  11.3 °C 29.87in /  1011.4hPa Calm   1.0mph /  1.6km/h 77% 0.00in /  0mm
01:15 59.5 °F /  15.3 °C 51.9 °F /  11.1 °C 29.87in /  1011.4hPa NE 1.0mph /  1.6km/h 1.0mph /  1.6km/h 76% 0.00in /  0mm
01:20 59.5 °F /  15.3 °C 51.9 °F /  11.1 °C 29.87in /  1011.4hPa North 1.0mph /  1.6km/h 1.0mph /  1.6km/h 76% 0.00in /  0mm
01:25 59.3 °F /  15.2 °C 52.1 °F /  11.2 °C 29.87in /  1011.4hPa NNW 1.0mph /  1.6km/h 2.0mph /  3.2km/h 77% 0.00in /  0mm
01:30 58.4 °F /  14.7 °C 52.6 °F /  11.4 °C 29.87in /  1011.4hPa Calm   1.0mph /  1.6km/h 81% 0.00in /  0mm
01:35 57.6 °F /  14.2 °C 52.5 °F /  11.4 °C 29.87in /  1011.4hPa Calm     83% 0.00in /  0mm
01:40 57.2 °F /  14 °C 52.4 °F /  11.3 °C 29.87in /  1011.4hPa Calm     84% 0.00in /  0mm
01:45 57.0 °F /  13.9 °C 52.5 °F /  11.4 °C 29.86in /  1011.1hPa Calm     85% 0.00in /  0mm
01:50 56.9 °F /  13.8 °C 52.4 °F /  11.3 °C 29.87in /  1011.4hPa Calm     85% 0.00in /  0mm
01:55 56.7 °F /  13.7 °C 52.6 °F /  11.4 °C 29.86in /  1011.1hPa Calm     86% 0.00in /  0mm
02:00 56.2 °F /  13.4 °C 52.4 °F /  11.3 °C 29.86in /  1011.1hPa Calm     87% 0.00in /  0mm
02:06 55.8 °F /  13.2 °C 52.3 °F /  11.3 °C 29.86in /  1011.1hPa Calm     88% 0.00in /  0mm
02:11 55.4 °F /  13 °C 52.2 °F /  11.2 °C 29.86in /  1011.1hPa Calm     89% 0.00in /  0mm
02:16 55.2 °F /  12.9 °C 52.3 °F /  11.3 °C 29.86in /  1011.1hPa Calm     90% 0.00in /  0mm
02:21 55.0 °F /  12.8 °C 52.1 °F /  11.2 °C 29.85in /  1010.7hPa Calm     90% 0.00in /  0mm
02:26 54.9 °F /  12.7 °C 52.3 °F /  11.3 °C 29.85in /  1010.7hPa Calm     91% 0.00in /  0mm
02:31 54.7 °F /  12.6 °C 52.1 °F /  11.2 °C 29.85in /  1010.7hPa Calm     91% 0.00in /  0mm
02:36 54.4 °F /  12.4 °C 51.8 °F /  11 °C 29.85in /  1010.7hPa Calm     91% 0.00in /  0mm
02:41 54.1 °F /  12.3 °C 51.5 °F /  10.8 °C 29.85in /  1010.7hPa Calm     91% 0.00in /  0mm
02:46 54.1 °F /  12.3 °C 52.1 °F /  11.2 °C 29.85in /  1010.7hPa Calm     93% 0.00in /  0mm
02:51 53.9 °F /  12.2 °C 51.9 °F /  11.1 °C 29.85in /  1010.7hPa Calm     93% 0.00in /  0mm
02:56 53.9 °F /  12.2 °C 51.9 °F /  11.1 °C 29.85in /  1010.7hPa Calm     93% 0.00in /  0mm
03:01 54.1 °F /  12.3 °C 52.1 °F /  11.2 °C 29.84in /  1010.4hPa Calm     93% 0.00in /  0mm
03:06 53.9 °F /  12.2 °C 51.9 °F /  11.1 °C 29.84in /  1010.4hPa Calm     93% 0.00in /  0mm
03:11 53.9 °F /  12.2 °C 51.9 °F /  11.1 °C 29.84in /  1010.4hPa Calm     93% 0.00in /  0mm
03:17 53.7 °F /  12.1 °C 51.7 °F /  10.9 °C 29.84in /  1010.4hPa Calm     93% 0.00in /  0mm
03:22 53.3 °F /  11.8 °C 51.3 °F /  10.7 °C 29.84in /  1010.4hPa Calm     93% 0.00in /  0mm
03:27 53.2 °F /  11.8 °C 51.2 °F /  10.7 °C 29.84in /  1010.4hPa Calm     93% 0.00in /  0mm
03:32 53.3 °F /  11.8 °C 51.3 °F /  10.7 °C 29.84in /  1010.4hPa Calm     93% 0.00in /  0mm
03:37 53.3 °F /  11.8 °C 51.3 °F /  10.7 °C 29.84in /  1010.4hPa Calm     93% 0.00in /  0mm
03:42 53.2 °F /  11.8 °C 51.2 °F /  10.7 °C 29.84in /  1010.4hPa Calm     93% 0.00in /  0mm
03:47 53.0 °F /  11.7 °C 51.3 °F /  10.7 °C 29.84in /  1010.4hPa Calm     94% 0.00in /  0mm
03:49 53.0 °F /  11.7 °C 51.3 °F /  10.7 °C 29.84in /  1010.4hPa Calm     94% 0.00in /  0mm
03:54 52.9 °F /  11.6 °C 51.2 °F /  10.7 °C 29.84in /  1010.4hPa Calm     94% 0.00in /  0mm
03:59 53.0 °F /  11.7 °C 51.3 °F /  10.7 °C 29.84in /  1010.4hPa Calm     94% 0.00in /  0mm
04:04 53.1 °F /  11.7 °C 51.4 °F /  10.8 °C 29.84in /  1010.4hPa Calm     94% 0.00in /  0mm
04:09 53.3 °F /  11.8 °C 51.3 °F /  10.7 °C 29.84in /  1010.4hPa Calm     93% 0.00in /  0mm
04:14 53.4 °F /  11.9 °C 51.4 °F /  10.8 °C 29.84in /  1010.4hPa Calm     93% 0.00in /  0mm
04:19 53.4 °F /  11.9 °C 51.4 °F /  10.8 °C 29.84in /  1010.4hPa Calm   1.0mph /  1.6km/h 93% 0.00in /  0mm
04:24 53.4 °F /  11.9 °C 51.1 °F /  10.6 °C 29.84in /  1010.4hPa Calm   1.0mph /  1.6km/h 92% 0.00in /  0mm
04:29 53.3 °F /  11.8 °C 51.0 °F /  10.6 °C 29.83in /  1010hPa Calm     92% 0.00in /  0mm
04:34 53.2 °F /  11.8 °C 50.9 °F /  10.5 °C 29.83in /  1010hPa Calm   1.0mph /  1.6km/h 92% 0.00in /  0mm
04:39 53.3 °F /  11.8 °C 51.0 °F /  10.6 °C 29.84in /  1010.4hPa Calm     92% 0.00in /  0mm
04:44 53.4 °F /  11.9 °C 51.1 °F /  10.6 °C 29.84in /  1010.4hPa Calm     92% 0.00in /  0mm
04:49 53.5 °F /  11.9 °C 50.9 °F /  10.5 °C 29.84in /  1010.4hPa NNW 1.0mph /  1.6km/h 1.0mph /  1.6km/h 91% 0.00in /  0mm
04:54 53.4 °F /  11.9 °C 50.8 °F /  10.4 °C 29.84in /  1010.4hPa NNW 1.0mph /  1.6km/h 1.0mph /  1.6km/h 91% 0.00in /  0mm
04:59 53.1 °F /  11.7 °C 50.8 °F /  10.4 °C 29.84in /  1010.4hPa Calm   1.0mph /  1.6km/h 92% 0.00in /  0mm
05:05 52.8 °F /  11.6 °C 50.5 °F /  10.3 °C 29.84in /  1010.4hPa Calm     92% 0.00in /  0mm
05:10 52.7 °F /  11.5 °C 50.5 °F /  10.3 °C 29.83in /  1010hPa Calm     92% 0.00in /  0mm
05:15 52.5 °F /  11.4 °C 50.5 °F /  10.3 °C 29.83in /  1010hPa Calm     93% 0.00in /  0mm
05:20 52.5 °F /  11.4 °C 50.5 °F /  10.3 °C 29.84in /  1010.4hPa Calm     93% 0.00in /  0mm
05:25 52.5 °F /  11.4 °C 50.5 °F /  10.3 °C 29.84in /  1010.4hPa Calm   1.0mph /  1.6km/h 93% 0.00in /  0mm
05:30 52.2 °F /  11.2 °C 50.2 °F /  10.1 °C 29.84in /  1010.4hPa NNW 1.0mph /  1.6km/h 1.0mph /  1.6km/h 93% 0.00in /  0mm
05:35 52.1 °F /  11.2 °C 50.4 °F /  10.2 °C 29.84in /  1010.4hPa Calm   1.0mph /  1.6km/h 94% 0.00in /  0mm
05:40 52.1 °F /  11.2 °C 50.4 °F /  10.2 °C 29.83in /  1010hPa Calm     94% 0.00in /  0mm
05:45 52.0 °F /  11.1 °C 50.3 °F /  10.2 °C 29.83in /  1010hPa Calm   1.0mph /  1.6km/h 94% 0.00in /  0mm
05:50 52.4 °F /  11.3 °C 50.7 °F /  10.4 °C 29.84in /  1010.4hPa Calm     94% 0.00in /  0mm
05:55 52.5 °F /  11.4 °C 50.5 °F /  10.3 °C 29.84in /  1010.4hPa Calm     93% 0.00in /  0mm
06:00 52.5 °F /  11.4 °C 50.5 °F /  10.3 °C 29.84in /  1010.4hPa Calm     93% 0.00in /  0mm
06:05 52.8 °F /  11.6 °C 50.8 °F /  10.4 °C 29.84in /  1010.4hPa Calm   1.0mph /  1.6km/h 93% 0.00in /  0mm
06:10 53.2 °F /  11.8 °C 51.2 °F /  10.7 °C 29.84in /  1010.4hPa Calm   1.0mph /  1.6km/h 93% 0.00in /  0mm
06:15 53.2 °F /  11.8 °C 50.7 °F /  10.4 °C 29.84in /  1010.4hPa NNW 1.0mph /  1.6km/h 1.0mph /  1.6km/h 91% 0.00in /  0mm
06:20 52.5 °F /  11.4 °C 50.2 °F /  10.1 °C 29.84in /  1010.4hPa NNW 1.0mph /  1.6km/h 1.0mph /  1.6km/h 92% 0.00in /  0mm
06:25 52.0 °F /  11.1 °C 50.0 °F /  10 °C 29.84in /  1010.4hPa NNW 1.0mph /  1.6km/h 1.0mph /  1.6km/h 93% 0.00in /  0mm
06:30 51.8 °F /  11 °C 49.8 °F /  9.9 °C 29.84in /  1010.4hPa Calm   1.0mph /  1.6km/h 93% 0.00in /  0mm
06:35 51.4 °F /  10.8 °C 49.5 °F /  9.7 °C 29.85in /  1010.7hPa Calm     93% 0.00in /  0mm
06:40 51.0 °F /  10.6 °C 49.0 °F /  9.4 °C 29.85in /  1010.7hPa Calm     93% 0.00in /  0mm
06:45 50.8 °F /  10.4 °C 49.1 °F /  9.5 °C 29.85in /  1010.7hPa Calm     94% 0.00in /  0mm
06:46 50.9 °F /  10.5 °C 49.2 °F /  9.6 °C 29.85in /  1010.7hPa Calm     94% 0.00in /  0mm
06:51 50.8 °F /  10.4 °C 49.1 °F /  9.5 °C 29.85in /  1010.7hPa Calm     94% 0.00in /  0mm
06:56 51.3 °F /  10.7 °C 49.9 °F /  9.9 °C 29.86in /  1011.1hPa Calm     95% 0.00in /  0mm
07:01 51.2 °F /  10.7 °C 49.5 °F /  9.7 °C 29.86in /  1011.1hPa Calm     94% 0.00in /  0mm
07:06 51.1 °F /  10.6 °C 49.4 °F /  9.7 °C 29.86in /  1011.1hPa Calm     94% 0.00in /  0mm
07:11 51.2 °F /  10.7 °C 49.5 °F /  9.7 °C 29.86in /  1011.1hPa Calm     94% 0.00in /  0mm
07:16 51.4 °F /  10.8 °C 50.0 °F /  10 °C 29.86in /  1011.1hPa Calm     95% 0.00in /  0mm
07:21 52.2 °F /  11.2 °C 50.8 °F /  10.4 °C 29.86in /  1011.1hPa Calm     95% 0.00in /  0mm
07:26 52.9 °F /  11.6 °C 51.2 °F /  10.7 °C 29.86in /  1011.1hPa Calm     94% 0.00in /  0mm
07:31 53.4 °F /  11.9 °C 51.7 °F /  10.9 °C 29.86in /  1011.1hPa Calm     94% 0.00in /  0mm
07:37 54.4 °F /  12.4 °C 52.7 °F /  11.5 °C 29.86in /  1011.1hPa Calm     94% 0.00in /  0mm
07:42 55.6 °F /  13.1 °C 53.6 °F /  12 °C 29.86in /  1011.1hPa Calm     93% 0.00in /  0mm
07:47 55.9 °F /  13.3 °C 53.3 °F /  11.8 °C 29.85in /  1010.7hPa Calm     91% 0.00in /  0mm
07:52 56.3 °F /  13.5 °C 53.7 °F /  12.1 °C 29.86in /  1011.1hPa Calm     91% 0.00in /  0mm
07:57 56.6 °F /  13.7 °C 54.0 °F /  12.2 °C 29.86in /  1011.1hPa Calm     91% 0.00in /  0mm
08:02 56.9 °F /  13.8 °C 54.3 °F /  12.4 °C 29.86in /  1011.1hPa Calm     91% 0.00in /  0mm
08:07 57.3 °F /  14.1 °C 54.7 °F /  12.6 °C 29.86in /  1011.1hPa Calm     91% 0.00in /  0mm
08:12 58.1 °F /  14.5 °C 55.8 °F /  13.2 °C 29.86in /  1011.1hPa Calm     92% 0.00in /  0mm
08:17 59.4 °F /  15.2 °C 56.8 °F /  13.8 °C 29.86in /  1011.1hPa Calm     91% 0.00in /  0mm
08:22 60.7 °F /  15.9 °C 57.4 °F /  14.1 °C 29.86in /  1011.1hPa Calm     89% 0.00in /  0mm
08:27 61.2 °F /  16.2 °C 57.3 °F /  14.1 °C 29.86in /  1011.1hPa Calm     87% 0.00in /  0mm
08:32 61.7 °F /  16.5 °C 56.8 °F /  13.8 °C 29.86in /  1011.1hPa Calm     84% 0.00in /  0mm
08:37 62.6 °F /  17 °C 58.0 °F /  14.4 °C 29.86in /  1011.1hPa Calm     85% 0.00in /  0mm
08:42 64.1 °F /  17.8 °C 59.2 °F /  15.1 °C 29.86in /  1011.1hPa Calm     84% 0.00in /  0mm
08:47 65.9 °F /  18.8 °C 59.6 °F /  15.3 °C 29.86in /  1011.1hPa Calm     80% 0.00in /  0mm
08:52 67.6 °F /  19.8 °C 60.9 °F /  16.1 °C 29.87in /  1011.4hPa Calm     79% 0.00in /  0mm
08:57 68.7 °F /  20.4 °C 59.7 °F /  15.4 °C 29.87in /  1011.4hPa ESE 1.0mph /  1.6km/h 2.0mph /  3.2km/h 73% 0.00in /  0mm
09:02 67.8 °F /  19.9 °C 59.2 °F /  15.1 °C 29.87in /  1011.4hPa ESE 2.0mph /  3.2km/h 4.0mph /  6.4km/h 74% 0.00in /  0mm
09:07 67.6 °F /  19.8 °C 58.7 °F /  14.8 °C 29.87in /  1011.4hPa SE 2.0mph /  3.2km/h 2.0mph /  3.2km/h 73% 0.00in /  0mm
09:13 67.5 °F /  19.7 °C 57.4 °F /  14.1 °C 29.87in /  1011.4hPa ESE 2.0mph /  3.2km/h 3.0mph /  4.8km/h 70% 0.00in /  0mm
09:18 67.5 °F /  19.7 °C 56.6 °F /  13.7 °C 29.87in /  1011.4hPa ESE 1.0mph /  1.6km/h 3.0mph /  4.8km/h 68% 0.00in /  0mm
09:23 68.0 °F /  20 °C 57.5 °F /  14.2 °C 29.87in /  1011.4hPa Calm   3.0mph /  4.8km/h 69% 0.00in /  0mm
09:28 68.4 °F /  20.2 °C 57.0 °F /  13.9 °C 29.87in /  1011.4hPa Calm   2.0mph /  3.2km/h 67% 0.00in /  0mm
09:33 69.2 °F /  20.7 °C 57.8 °F /  14.3 °C 29.87in /  1011.4hPa SE 2.0mph /  3.2km/h 2.0mph /  3.2km/h 67% 0.00in /  0mm
09:38 69.9 °F /  21.1 °C 58.5 °F /  14.7 °C 29.87in /  1011.4hPa SSW 1.0mph /  1.6km/h 2.0mph /  3.2km/h 67% 0.00in /  0mm
09:43 70.0 °F /  21.1 °C 58.5 °F /  14.7 °C 29.87in /  1011.4hPa SE 2.0mph /  3.2km/h 2.0mph /  3.2km/h 67% 0.00in /  0mm
09:48 70.3 °F /  21.3 °C 58.8 °F /  14.9 °C 29.87in /  1011.4hPa SSE 1.0mph /  1.6km/h 3.0mph /  4.8km/h 67% 0.00in /  0mm
09:53 70.6 °F /  21.4 °C 58.7 °F /  14.8 °C 29.87in /  1011.4hPa SE 2.0mph /  3.2km/h 3.0mph /  4.8km/h 66% 0.00in /  0mm
09:58 70.4 °F /  21.3 °C 57.2 °F /  14 °C 29.87in /  1011.4hPa ESE 2.0mph /  3.2km/h 4.0mph /  6.4km/h 63% 0.00in /  0mm
10:03 70.2 °F /  21.2 °C 58.3 °F /  14.6 °C 29.87in /  1011.4hPa ESE 2.0mph /  3.2km/h 4.0mph /  6.4km/h 66% 0.00in /  0mm
10:08 70.1 °F /  21.2 °C 57.8 °F /  14.3 °C 29.87in /  1011.4hPa ESE 2.0mph /  3.2km/h 5.0mph /  8km/h 65% 0.00in /  0mm
10:13 70.3 °F /  21.3 °C 58.0 °F /  14.4 °C 29.87in /  1011.4hPa SSE 2.0mph /  3.2km/h 4.0mph /  6.4km/h 65% 0.00in /  0mm
10:18 70.6 °F /  21.4 °C 58.3 °F /  14.6 °C 29.87in /  1011.4hPa SW 2.0mph /  3.2km/h 4.0mph /  6.4km/h 65% 0.00in /  0mm
10:23 70.5 °F /  21.4 °C 57.3 °F /  14.1 °C 29.87in /  1011.4hPa ESE 3.0mph /  4.8km/h 4.0mph /  6.4km/h 63% 0.00in /  0mm
10:28 70.6 °F /  21.4 °C 56.5 °F /  13.6 °C 29.87in /  1011.4hPa Calm   3.0mph /  4.8km/h 61% 0.00in /  0mm
10:33 71.4 °F /  21.9 °C 58.6 °F /  14.8 °C 29.87in /  1011.4hPa East 1.0mph /  1.6km/h 3.0mph /  4.8km/h 64% 0.00in /  0mm
10:38 71.5 °F /  21.9 °C 57.4 °F /  14.1 °C 29.87in /  1011.4hPa SSW 3.0mph /  4.8km/h 6.0mph /  9.7km/h 61% 0.00in /  0mm
10:43 71.7 °F /  22.1 °C 56.2 °F /  13.4 °C 29.87in /  1011.4hPa SSW 3.0mph /  4.8km/h 4.0mph /  6.4km/h 58% 0.00in /  0mm
10:48 71.9 °F /  22.2 °C 55.4 °F /  13 °C 29.88in /  1011.7hPa SSE 5.0mph /  8km/h 8.0mph /  12.9km/h 56% 0.00in /  0mm
10:53 71.7 °F /  22.1 °C 57.1 °F /  13.9 °C 29.88in /  1011.7hPa SSW 3.0mph /  4.8km/h 6.0mph /  9.7km/h 60% 0.00in /  0mm
10:58 71.8 °F /  22.1 °C 56.2 °F /  13.4 °C 29.87in /  1011.4hPa SSE 3.0mph /  4.8km/h 3.0mph /  4.8km/h 58% 0.00in /  0mm
11:03 72.1 °F /  22.3 °C 57.5 °F /  14.2 °C 29.87in /  1011.4hPa South 3.0mph /  4.8km/h 7.0mph /  11.3km/h 60% 0.00in /  0mm
11:08 72.3 °F /  22.4 °C 57.2 °F /  14 °C 29.87in /  1011.4hPa WSW 8.0mph /  12.9km/h 8.0mph /  12.9km/h 59% 0.00in /  0mm
11:13 72.1 °F /  22.3 °C 56.5 °F /  13.6 °C 29.88in /  1011.7hPa SSW 1.0mph /  1.6km/h 6.0mph /  9.7km/h 58% 0.00in /  0mm
11:18 72.3 °F /  22.4 °C 56.2 °F /  13.4 °C 29.88in /  1011.7hPa South 4.0mph /  6.4km/h 8.0mph /  12.9km/h 57% 0.00in /  0mm
11:23 72.5 °F /  22.5 °C 56.4 °F /  13.6 °C 29.88in /  1011.7hPa SW 4.0mph /  6.4km/h 7.0mph /  11.3km/h 57% 0.00in /  0mm
11:28 72.7 °F /  22.6 °C 56.6 °F /  13.7 °C 29.88in /  1011.7hPa SW 6.0mph /  9.7km/h 7.0mph /  11.3km/h 57% 0.00in /  0mm
11:33 72.6 °F /  22.6 °C 57.5 °F /  14.2 °C 29.88in /  1011.7hPa SSW 4.0mph /  6.4km/h 8.0mph /  12.9km/h 59% 0.00in /  0mm
11:38 73.0 °F /  22.8 °C 56.4 °F /  13.6 °C 29.88in /  1011.7hPa Calm   3.0mph /  4.8km/h 56% 0.00in /  0mm
11:43 73.6 °F /  23.1 °C 57.4 °F /  14.1 °C 29.88in /  1011.7hPa SSW 3.0mph /  4.8km/h 5.0mph /  8km/h 57% 0.00in /  0mm
11:48 73.5 °F /  23.1 °C 55.9 °F /  13.3 °C 29.88in /  1011.7hPa West 5.0mph /  8km/h 9.0mph /  14.5km/h 54% 0.00in /  0mm
11:53 73.1 °F /  22.8 °C 56.0 °F /  13.3 °C 29.88in /  1011.7hPa SW 4.0mph /  6.4km/h 7.0mph /  11.3km/h 55% 0.00in /  0mm
11:58 73.4 °F /  23 °C 56.3 °F /  13.5 °C 29.88in /  1011.7hPa SW 3.0mph /  4.8km/h 6.0mph /  9.7km/h 55% 0.00in /  0mm
12:03 73.2 °F /  22.9 °C 56.6 °F /  13.7 °C 29.88in /  1011.7hPa WSW 8.0mph /  12.9km/h 8.0mph /  12.9km/h 56% 0.00in /  0mm
12:09 73.3 °F /  22.9 °C 57.2 °F /  14 °C 29.88in /  1011.7hPa West 2.0mph /  3.2km/h 8.0mph /  12.9km/h 57% 0.00in /  0mm
12:14 73.7 °F /  23.2 °C 57.0 °F /  13.9 °C 29.87in /  1011.4hPa WSW 2.0mph /  3.2km/h 4.0mph /  6.4km/h 56% 0.00in /  0mm
12:19 73.9 °F /  23.3 °C 55.2 °F /  12.9 °C 29.87in /  1011.4hPa SSW 3.0mph /  4.8km/h 7.0mph /  11.3km/h 52% 0.00in /  0mm
12:24 74.0 °F /  23.3 °C 55.3 °F /  12.9 °C 29.88in /  1011.7hPa SW 3.0mph /  4.8km/h 7.0mph /  11.3km/h 52% 0.00in /  0mm
12:29 74.2 °F /  23.4 °C 54.9 °F /  12.7 °C 29.87in /  1011.4hPa WSW 2.0mph /  3.2km/h 3.0mph /  4.8km/h 51% 0.00in /  0mm
12:34 74.4 °F /  23.6 °C 56.2 °F /  13.4 °C 29.87in /  1011.4hPa SW 3.0mph /  4.8km/h 7.0mph /  11.3km/h 53% 0.00in /  0mm
12:39 74.1 °F /  23.4 °C 54.8 °F /  12.7 °C 29.87in /  1011.4hPa WSW 2.0mph /  3.2km/h 10.0mph /  16.1km/h 51% 0.00in /  0mm
12:44 74.0 °F /  23.3 °C 54.7 °F /  12.6 °C 29.87in /  1011.4hPa SSE 3.0mph /  4.8km/h 8.0mph /  12.9km/h 51% 0.00in /  0mm
12:45 74.0 °F /  23.3 °C 54.7 °F /  12.6 °C 29.87in /  1011.4hPa SSE 2.0mph /  3.2km/h 8.0mph /  12.9km/h 51% 0.00in /  0mm
12:50 74.4 °F /  23.6 °C 55.7 °F /  13.2 °C 29.87in /  1011.4hPa WNW 3.0mph /  4.8km/h 5.0mph /  8km/h 52% 0.00in /  0mm
12:55 74.8 °F /  23.8 °C 57.1 °F /  13.9 °C 29.87in /  1011.4hPa SSW 2.0mph /  3.2km/h 6.0mph /  9.7km/h 54% 0.00in /  0mm
13:00 75.0 °F /  23.9 °C 55.7 °F /  13.2 °C 29.87in /  1011.4hPa SSE 2.0mph /  3.2km/h 11.0mph /  17.7km/h 51% 0.00in /  0mm
13:05 75.3 °F /  24.1 °C 57.0 °F /  13.9 °C 29.87in /  1011.4hPa SSW 9.0mph /  14.5km/h 9.0mph /  14.5km/h 53% 0.00in /  0mm
13:10 75.6 °F /  24.2 °C 55.1 °F /  12.8 °C 29.87in /  1011.4hPa SSE 2.0mph /  3.2km/h 4.0mph /  6.4km/h 49% 0.00in /  0mm
13:15 75.5 °F /  24.2 °C 55.0 °F /  12.8 °C 29.87in /  1011.4hPa WSW 4.0mph /  6.4km/h 7.0mph /  11.3km/h 49% 0.00in /  0mm
13:20 75.7 °F /  24.3 °C 56.3 °F /  13.5 °C 29.87in /  1011.4hPa SSW 5.0mph /  8km/h 9.0mph /  14.5km/h 51% 0.00in /  0mm
13:25 75.9 °F /  24.4 °C 55.4 °F /  13 °C 29.87in /  1011.4hPa SW 8.0mph /  12.9km/h 8.0mph /  12.9km/h 49% 0.00in /  0mm
13:31 76.1 °F /  24.5 °C 56.1 °F /  13.4 °C 29.86in /  1011.1hPa SSE 6.0mph /  9.7km/h 9.0mph /  14.5km/h 50% 0.00in /  0mm
13:36 76.0 °F /  24.4 °C 56.0 °F /  13.3 °C 29.87in /  1011.4hPa SSE 4.0mph /  6.4km/h 8.0mph /  12.9km/h 50% 0.00in /  0mm
13:41 75.7 °F /  24.3 °C 57.9 °F /  14.4 °C 29.86in /  1011.1hPa South 1.0mph /  1.6km/h 7.0mph /  11.3km/h 54% 0.00in /  0mm
13:46 76.2 °F /  24.6 °C 58.4 °F /  14.7 °C 29.86in /  1011.1hPa WSW 5.0mph /  8km/h 5.0mph /  8km/h 54% 0.00in /  0mm
13:51 76.4 °F /  24.7 °C 57.5 °F /  14.2 °C 29.86in /  1011.1hPa SSE 3.0mph /  4.8km/h 6.0mph /  9.7km/h 52% 0.00in /  0mm
13:56 76.7 °F /  24.8 °C 55.0 °F /  12.8 °C 29.86in /  1011.1hPa West 4.0mph /  6.4km/h 7.0mph /  11.3km/h 47% 0.00in /  0mm
14:01 76.7 °F /  24.8 °C 55.0 °F /  12.8 °C 29.86in /  1011.1hPa South 3.0mph /  4.8km/h 7.0mph /  11.3km/h 47% 0.00in /  0mm
14:06 76.9 °F /  24.9 °C 54.6 °F /  12.6 °C 29.85in /  1010.7hPa ESE 4.0mph /  6.4km/h 8.0mph /  12.9km/h 46% 0.00in /  0mm
14:11 76.7 °F /  24.8 °C 56.1 °F /  13.4 °C 29.85in /  1010.7hPa SE 3.0mph /  4.8km/h 6.0mph /  9.7km/h 49% 0.00in /  0mm
14:16 77.3 °F /  25.2 °C 56.7 °F /  13.7 °C 29.85in /  1010.7hPa SSE 1.0mph /  1.6km/h 5.0mph /  8km/h 49% 0.00in /  0mm
14:21 77.6 °F /  25.3 °C 57.5 °F /  14.2 °C 29.85in /  1010.7hPa South 2.0mph /  3.2km/h 4.0mph /  6.4km/h 50% 0.00in /  0mm
14:26 77.7 °F /  25.4 °C 55.3 °F /  12.9 °C 29.85in /  1010.7hPa WSW 4.0mph /  6.4km/h 6.0mph /  9.7km/h 46% 0.00in /  0mm
14:31 77.7 °F /  25.4 °C 56.5 °F /  13.6 °C 29.85in /  1010.7hPa SSW 4.0mph /  6.4km/h 8.0mph /  12.9km/h 48% 0.00in /  0mm
14:37 77.6 °F /  25.3 °C 55.8 °F /  13.2 °C 29.84in /  1010.4hPa NNE 4.0mph /  6.4km/h 4.0mph /  6.4km/h 47% 0.00in /  0mm
14:42 77.5 °F /  25.3 °C 58.5 °F /  14.7 °C 29.84in /  1010.4hPa SSE 4.0mph /  6.4km/h 5.0mph /  8km/h 52% 0.00in /  0mm
14:47 77.7 °F /  25.4 °C 57.0 °F /  13.9 °C 29.84in /  1010.4hPa West 5.0mph /  8km/h 6.0mph /  9.7km/h 49% 0.00in /  0mm
14:52 77.5 °F /  25.3 °C 55.7 °F /  13.2 °C 29.84in /  1010.4hPa Calm   3.0mph /  4.8km/h 47% 0.00in /  0mm
14:57 77.7 °F /  25.4 °C 55.3 °F /  12.9 °C 29.84in /  1010.4hPa West 2.0mph /  3.2km/h 7.0mph /  11.3km/h 46% 0.00in /  0mm
15:02 77.6 °F /  25.3 °C 55.2 °F /  12.9 °C 29.83in /  1010hPa Calm   4.0mph /  6.4km/h 46% 0.00in /  0mm
15:03 77.6 °F /  25.3 °C 55.8 °F /  13.2 °C 29.83in /  1010hPa Calm   4.0mph /  6.4km/h 47% 0.00in /  0mm
15:08 78.2 °F /  25.7 °C 57.5 °F /  14.2 °C 29.83in /  1010hPa SW 5.0mph /  8km/h 7.0mph /  11.3km/h 49% 0.00in /  0mm
15:13 78.6 °F /  25.9 °C 56.7 °F /  13.7 °C 29.83in /  1010hPa SSW 4.0mph /  6.4km/h 7.0mph /  11.3km/h 47% 0.00in /  0mm
15:18 78.6 °F /  25.9 °C 55.5 °F /  13.1 °C 29.83in /  1010hPa SW 6.0mph /  9.7km/h 8.0mph /  12.9km/h 45% 0.00in /  0mm
15:23 78.4 °F /  25.8 °C 55.3 °F /  12.9 °C 29.83in /  1010hPa South 4.0mph /  6.4km/h 5.0mph /  8km/h 45% 0.00in /  0mm
15:28 78.6 °F /  25.9 °C 55.5 °F /  13.1 °C 29.83in /  1010hPa SSE 4.0mph /  6.4km/h 6.0mph /  9.7km/h 45% 0.00in /  0mm
15:33 78.8 °F /  26 °C 56.3 °F /  13.5 °C 29.82in /  1009.7hPa South 1.0mph /  1.6km/h 3.0mph /  4.8km/h 46% 0.00in /  0mm
15:38 78.7 °F /  25.9 °C 53.0 °F /  11.7 °C 29.82in /  1009.7hPa ESE 3.0mph /  4.8km/h 5.0mph /  8km/h 41% 0.00in /  0mm
15:43 78.3 °F /  25.7 °C 54.6 °F /  12.6 °C 29.82in /  1009.7hPa ESE 3.0mph /  4.8km/h 4.0mph /  6.4km/h 44% 0.00in /  0mm
15:48 78.8 °F /  26 °C 54.4 °F /  12.4 °C 29.82in /  1009.7hPa SW 2.0mph /  3.2km/h 5.0mph /  8km/h 43% 0.00in /  0mm
15:53 79.0 °F /  26.1 °C 55.2 °F /  12.9 °C 29.82in /  1009.7hPa SE 3.0mph /  4.8km/h 6.0mph /  9.7km/h 44% 0.00in /  0mm
15:58 79.0 °F /  26.1 °C 55.9 °F /  13.3 °C 29.82in /  1009.7hPa West 2.0mph /  3.2km/h 7.0mph /  11.3km/h 45% 0.00in /  0mm
16:04 79.6 °F /  26.4 °C 58.8 °F /  14.9 °C 29.82in /  1009.7hPa SSW 2.0mph /  3.2km/h 5.0mph /  8km/h 49% 0.00in /  0mm
16:09 80.1 °F /  26.7 °C 57.5 °F /  14.2 °C 29.81in /  1009.4hPa ESE 4.0mph /  6.4km/h 6.0mph /  9.7km/h 46% 0.00in /  0mm
16:14 79.7 °F /  26.5 °C 56.5 °F /  13.6 °C 29.81in /  1009.4hPa Calm   2.0mph /  3.2km/h 45% 0.00in /  0mm
16:19 80.1 °F /  26.7 °C 57.5 °F /  14.2 °C 29.81in /  1009.4hPa East 9.0mph /  14.5km/h 9.0mph /  14.5km/h 46% 0.00in /  0mm
16:24 79.4 °F /  26.3 °C 56.2 °F /  13.4 °C 29.81in /  1009.4hPa East 7.0mph /  11.3km/h 8.0mph /  12.9km/h 45% 0.00in /  0mm
16:29 79.2 °F /  26.2 °C 57.2 °F /  14 °C 29.81in /  1009.4hPa SSE 3.0mph /  4.8km/h 6.0mph /  9.7km/h 47% 0.00in /  0mm
16:34 79.7 °F /  26.5 °C 58.9 °F /  14.9 °C 29.81in /  1009.4hPa WSW 3.0mph /  4.8km/h 5.0mph /  8km/h 49% 0.00in /  0mm
16:39 79.2 °F /  26.2 °C 54.2 °F /  12.3 °C 29.81in /  1009.4hPa SE 7.0mph /  11.3km/h 10.0mph /  16.1km/h 42% 0.00in /  0mm
16:44 78.9 °F /  26.1 °C 55.8 °F /  13.2 °C 29.81in /  1009.4hPa SSE 3.0mph /  4.8km/h 8.0mph /  12.9km/h 45% 0.00in /  0mm
16:49 79.3 °F /  26.3 °C 56.1 °F /  13.4 °C 29.80in /  1009hPa SW 3.0mph /  4.8km/h 4.0mph /  6.4km/h 45% 0.00in /  0mm
16:54 79.4 °F /  26.3 °C 55.0 °F /  12.8 °C 29.80in /  1009hPa WSW 2.0mph /  3.2km/h 5.0mph /  8km/h 43% 0.00in /  0mm
16:59 79.4 °F /  26.3 °C 56.8 °F /  13.8 °C 29.80in /  1009hPa SW 3.0mph /  4.8km/h 7.0mph /  11.3km/h 46% 0.00in /  0mm
17:04 79.5 °F /  26.4 °C 57.5 °F /  14.2 °C 29.80in /  1009hPa NE 2.0mph /  3.2km/h 3.0mph /  4.8km/h 47% 0.00in /  0mm
17:09 79.5 °F /  26.4 °C 55.7 °F /  13.2 °C 29.80in /  1009hPa SE 2.0mph /  3.2km/h 7.0mph /  11.3km/h 44% 0.00in /  0mm
17:14 79.7 °F /  26.5 °C 55.2 °F /  12.9 °C 29.80in /  1009hPa SSW 3.0mph /  4.8km/h 7.0mph /  11.3km/h 43% 0.00in /  0mm
17:19 79.8 °F /  26.6 °C 54.0 °F /  12.2 °C 29.80in /  1009hPa SSE 5.0mph /  8km/h 9.0mph /  14.5km/h 41% 0.00in /  0mm
17:24 79.5 °F /  26.4 °C 55.7 °F /  13.2 °C 29.80in /  1009hPa ESE 9.0mph /  14.5km/h 9.0mph /  14.5km/h 44% 0.00in /  0mm
17:29 79.4 °F /  26.3 °C 53.0 °F /  11.7 °C 29.80in /  1009hPa ESE 7.0mph /  11.3km/h 10.0mph /  16.1km/h 40% 0.00in /  0mm
17:34 79.1 °F /  26.2 °C 53.4 °F /  11.9 °C 29.80in /  1009hPa SE 5.0mph /  8km/h 9.0mph /  14.5km/h 41% 0.00in /  0mm
17:40 78.8 °F /  26 °C 53.8 °F /  12.1 °C 29.80in /  1009hPa East 3.0mph /  4.8km/h 7.0mph /  11.3km/h 42% 0.00in /  0mm
17:45 79.1 °F /  26.2 °C 53.4 °F /  11.9 °C 29.80in /  1009hPa Calm   4.0mph /  6.4km/h 41% 0.00in /  0mm
17:50 80.1 °F /  26.7 °C 55.0 °F /  12.8 °C 29.80in /  1009hPa SW 3.0mph /  4.8km/h 6.0mph /  9.7km/h 42% 0.00in /  0mm
17:55 80.0 °F /  26.7 °C 52.8 °F /  11.6 °C 29.80in /  1009hPa SSW 2.0mph /  3.2km/h 4.0mph /  6.4km/h 39% 0.00in /  0mm
18:00 79.9 °F /  26.6 °C 52.0 °F /  11.1 °C 29.80in /  1009hPa SW 3.0mph /  4.8km/h 8.0mph /  12.9km/h 38% 0.00in /  0mm
18:05 80.1 °F /  26.7 °C 55.0 °F /  12.8 °C 29.80in /  1009hPa SSE 5.0mph /  8km/h 7.0mph /  11.3km/h 42% 0.00in /  0mm
18:10 80.0 °F /  26.7 °C 54.2 °F /  12.3 °C 29.79in /  1008.7hPa SE 3.0mph /  4.8km/h 6.0mph /  9.7km/h 41% 0.00in /  0mm
18:15 80.0 °F /  26.7 °C 55.5 °F /  13.1 °C 29.79in /  1008.7hPa SSW 3.0mph /  4.8km/h 7.0mph /  11.3km/h 43% 0.00in /  0mm
18:20 80.1 °F /  26.7 °C 53.6 °F /  12 °C 29.80in /  1009hPa SSE 2.0mph /  3.2km/h 7.0mph /  11.3km/h 40% 0.00in /  0mm
18:25 80.4 °F /  26.9 °C 54.6 °F /  12.6 °C 29.80in /  1009hPa SE 5.0mph /  8km/h 7.0mph /  11.3km/h 41% 0.00in /  0mm
18:30 80.1 °F /  26.7 °C 55.6 °F /  13.1 °C 29.80in /  1009hPa SW 2.0mph /  3.2km/h 2.0mph /  3.2km/h 43% 0.00in /  0mm
18:31 80.1 °F /  26.7 °C 55.6 °F /  13.1 °C 29.80in /  1009hPa SW 2.0mph /  3.2km/h 2.0mph /  3.2km/h 43% 0.00in /  0mm
18:36 80.2 °F /  26.8 °C 54.4 °F /  12.4 °C 29.80in /  1009hPa SE 3.0mph /  4.8km/h 3.0mph /  4.8km/h 41% 0.00in /  0mm
18:41 80.2 °F /  26.8 °C 54.4 °F /  12.4 °C 29.80in /  1009hPa SE 5.0mph /  8km/h 7.0mph /  11.3km/h 41% 0.00in /  0mm
18:46 80.1 °F /  26.7 °C 55.6 °F /  13.1 °C 29.79in /  1008.7hPa South 6.0mph /  9.7km/h 6.0mph /  9.7km/h 43% 0.00in /  0mm
18:51 80.1 °F /  26.7 °C 55.0 °F /  12.8 °C 29.80in /  1009hPa SSE 4.0mph /  6.4km/h 5.0mph /  8km/h 42% 0.00in /  0mm
18:56 79.8 °F /  26.6 °C 56.0 °F /  13.3 °C 29.79in /  1008.7hPa SSE 3.0mph /  4.8km/h 6.0mph /  9.7km/h 44% 0.00in /  0mm
19:01 79.7 °F /  26.5 °C 56.5 °F /  13.6 °C 29.80in /  1009hPa ESE 5.0mph /  8km/h 6.0mph /  9.7km/h 45% 0.00in /  0mm
19:06 79.4 °F /  26.3 °C 56.2 °F /  13.4 °C 29.79in /  1008.7hPa SE 3.0mph /  4.8km/h 5.0mph /  8km/h 45% 0.00in /  0mm
19:11 79.2 °F /  26.2 °C 55.4 °F /  13 °C 29.79in /  1008.7hPa SE 4.0mph /  6.4km/h 5.0mph /  8km/h 44% 0.00in /  0mm
19:16 79.1 °F /  26.2 °C 56.6 °F /  13.7 °C 29.79in /  1008.7hPa South 2.0mph /  3.2km/h 4.0mph /  6.4km/h 46% 0.00in /  0mm
19:21 79.0 °F /  26.1 °C 55.9 °F /  13.3 °C 29.79in /  1008.7hPa SSE 3.0mph /  4.8km/h 5.0mph /  8km/h 45% 0.00in /  0mm
19:26 79.1 °F /  26.2 °C 55.3 °F /  12.9 °C 29.79in /  1008.7hPa South 2.0mph /  3.2km/h 4.0mph /  6.4km/h 44% 0.00in /  0mm
19:31 79.0 °F /  26.1 °C 56.5 °F /  13.6 °C 29.79in /  1008.7hPa SE 3.0mph /  4.8km/h 6.0mph /  9.7km/h 46% 0.00in /  0mm
19:36 78.6 °F /  25.9 °C 56.1 °F /  13.4 °C 29.79in /  1008.7hPa SE 3.0mph /  4.8km/h 4.0mph /  6.4km/h 46% 0.00in /  0mm
19:41 78.3 °F /  25.7 °C 55.2 °F /  12.9 °C 29.79in /  1008.7hPa ESE 4.0mph /  6.4km/h 6.0mph /  9.7km/h 45% 0.00in /  0mm
19:46 78.1 °F /  25.6 °C 55.7 °F /  13.2 °C 29.79in /  1008.7hPa SE 4.0mph /  6.4km/h 5.0mph /  8km/h 46% 0.00in /  0mm
19:51 78.1 °F /  25.6 °C 56.2 °F /  13.4 °C 29.79in /  1008.7hPa SE 2.0mph /  3.2km/h 4.0mph /  6.4km/h 47% 0.00in /  0mm
19:56 78.0 °F /  25.6 °C 56.7 °F /  13.7 °C 29.79in /  1008.7hPa SE 2.0mph /  3.2km/h 3.0mph /  4.8km/h 48% 0.00in /  0mm
20:02 78.1 °F /  25.6 °C 58.5 °F /  14.7 °C 29.79in /  1008.7hPa SSE 1.0mph /  1.6km/h 2.0mph /  3.2km/h 51% 0.00in /  0mm
20:07 77.8 °F /  25.4 °C 57.1 °F /  13.9 °C 29.79in /  1008.7hPa SE 1.0mph /  1.6km/h 4.0mph /  6.4km/h 49% 0.00in /  0mm
20:12 77.5 °F /  25.3 °C 56.9 °F /  13.8 °C 29.79in /  1008.7hPa ESE 2.0mph /  3.2km/h 2.0mph /  3.2km/h 49% 0.00in /  0mm
20:17 77.3 °F /  25.2 °C 57.8 °F /  14.3 °C 29.79in /  1008.7hPa ESE 1.0mph /  1.6km/h 2.0mph /  3.2km/h 51% 0.00in /  0mm
20:22 76.9 °F /  24.9 °C 58.0 °F /  14.4 °C 29.79in /  1008.7hPa SE 2.0mph /  3.2km/h 3.0mph /  4.8km/h 52% 0.00in /  0mm
20:27 76.5 °F /  24.7 °C 57.6 °F /  14.2 °C 29.79in /  1008.7hPa ESE 1.0mph /  1.6km/h 2.0mph /  3.2km/h 52% 0.00in /  0mm
20:32 76.0 °F /  24.4 °C 58.2 °F /  14.6 °C 29.79in /  1008.7hPa ESE 1.0mph /  1.6km/h 1.0mph /  1.6km/h 54% 0.00in /  0mm
20:37 75.5 °F /  24.2 °C 58.2 °F /  14.6 °C 29.79in /  1008.7hPa Calm   1.0mph /  1.6km/h 55% 0.00in /  0mm
20:42 74.8 °F /  23.8 °C 58.6 °F /  14.8 °C 29.79in /  1008.7hPa Calm   1.0mph /  1.6km/h 57% 0.00in /  0mm
20:47 73.9 °F /  23.3 °C 57.7 °F /  14.3 °C 29.79in /  1008.7hPa East 2.0mph /  3.2km/h 2.0mph /  3.2km/h 57% 0.00in /  0mm
20:52 73.4 °F /  23 °C 57.7 °F /  14.3 °C 29.79in /  1008.7hPa ESE 1.0mph /  1.6km/h 1.0mph /  1.6km/h 58% 0.00in /  0mm
20:57 72.7 °F /  22.6 °C 57.6 °F /  14.2 °C 29.79in /  1008.7hPa Calm     59% 0.00in /  0mm
21:02 72.0 °F /  22.2 °C 56.4 °F /  13.6 °C 29.80in /  1009hPa Calm   1.0mph /  1.6km/h 58% 0.00in /  0mm
21:07 71.7 °F /  22.1 °C 56.6 °F /  13.7 °C 29.79in /  1008.7hPa ESE 1.0mph /  1.6km/h 1.0mph /  1.6km/h 59% 0.00in /  0mm
21:12 71.3 °F /  21.8 °C 56.2 °F /  13.4 °C 29.80in /  1009hPa ESE 1.0mph /  1.6km/h 2.0mph /  3.2km/h 59% 0.00in /  0mm
21:17 71.0 °F /  21.7 °C 56.0 °F /  13.3 °C 29.80in /  1009hPa ESE 1.0mph /  1.6km/h 2.0mph /  3.2km/h 59% 0.00in /  0mm
21:22 70.8 °F /  21.6 °C 56.2 °F /  13.4 °C 29.80in /  1009hPa Calm   1.0mph /  1.6km/h 60% 0.00in /  0mm
21:27 70.5 °F /  21.4 °C 56.4 °F /  13.6 °C 29.80in /  1009hPa ESE 2.0mph /  3.2km/h 2.0mph /  3.2km/h 61% 0.00in /  0mm
21:32 70.2 °F /  21.2 °C 56.1 °F /  13.4 °C 29.80in /  1009hPa ESE 1.0mph /  1.6km/h 2.0mph /  3.2km/h 61% 0.00in /  0mm
21:38 70.1 °F /  21.2 °C 56.0 °F /  13.3 °C 29.80in /  1009hPa East 2.0mph /  3.2km/h 2.0mph /  3.2km/h 61% 0.00in /  0mm
21:43 70.0 °F /  21.1 °C 56.0 °F /  13.3 °C 29.80in /  1009hPa ESE 1.0mph /  1.6km/h 2.0mph /  3.2km/h 61% 0.00in /  0mm
21:48 69.9 °F /  21.1 °C 55.8 °F /  13.2 °C 29.80in /  1009hPa ESE 1.0mph /  1.6km/h 1.0mph /  1.6km/h 61% 0.00in /  0mm
21:53 69.7 °F /  20.9 °C 55.2 °F /  12.9 °C 29.80in /  1009hPa ESE 1.0mph /  1.6km/h 2.0mph /  3.2km/h 60% 0.00in /  0mm
21:58 69.6 °F /  20.9 °C 55.1 °F /  12.8 °C 29.80in /  1009hPa ESE 1.0mph /  1.6km/h 2.0mph /  3.2km/h 60% 0.00in /  0mm
22:03 69.4 °F /  20.8 °C 55.4 °F /  13 °C 29.80in /  1009hPa ESE 1.0mph /  1.6km/h 1.0mph /  1.6km/h 61% 0.00in /  0mm
22:08 69.3 °F /  20.7 °C 54.8 °F /  12.7 °C 29.81in /  1009.4hPa ESE 1.0mph /  1.6km/h 1.0mph /  1.6km/h 60% 0.00in /  0mm
22:13 69.2 °F /  20.7 °C 54.7 °F /  12.6 °C 29.81in /  1009.4hPa ESE 1.0mph /  1.6km/h 1.0mph /  1.6km/h 60% 0.00in /  0mm
22:18 69.2 °F /  20.7 °C 54.7 °F /  12.6 °C 29.81in /  1009.4hPa ESE 1.0mph /  1.6km/h 1.0mph /  1.6km/h 60% 0.00in /  0mm
22:23 68.9 °F /  20.5 °C 54.9 °F /  12.7 °C 29.81in /  1009.4hPa Calm   1.0mph /  1.6km/h 61% 0.00in /  0mm
22:28 68.5 °F /  20.3 °C 55.0 °F /  12.8 °C 29.81in /  1009.4hPa Calm   1.0mph /  1.6km/h 62% 0.00in /  0mm
22:33 68.1 °F /  20.1 °C 55.0 °F /  12.8 °C 29.81in /  1009.4hPa Calm     63% 0.00in /  0mm
22:38 68.0 °F /  20 °C 54.5 °F /  12.5 °C 29.81in /  1009.4hPa East 2.0mph /  3.2km/h 2.0mph /  3.2km/h 62% 0.00in /  0mm
22:43 68.3 °F /  20.2 °C 54.8 °F /  12.7 °C 29.81in /  1009.4hPa ESE 1.0mph /  1.6km/h 2.0mph /  3.2km/h 62% 0.00in /  0mm
22:48 68.3 °F /  20.2 °C 55.2 °F /  12.9 °C 29.81in /  1009.4hPa ESE 1.0mph /  1.6km/h 2.0mph /  3.2km/h 63% 0.00in /  0mm
22:54 68.3 °F /  20.2 °C 55.2 °F /  12.9 °C 29.81in /  1009.4hPa East 2.0mph /  3.2km/h 3.0mph /  4.8km/h 63% 0.00in /  0mm
22:59 68.2 °F /  20.1 °C 55.6 °F /  13.1 °C 29.81in /  1009.4hPa ESE 2.0mph /  3.2km/h 2.0mph /  3.2km/h 64% 0.00in /  0mm
23:04 67.9 °F /  19.9 °C 55.7 °F /  13.2 °C 29.82in /  1009.7hPa ESE 2.0mph /  3.2km/h 3.0mph /  4.8km/h 65% 0.00in /  0mm
23:09 67.6 °F /  19.8 °C 55.8 °F /  13.2 °C 29.81in /  1009.4hPa SE 2.0mph /  3.2km/h 3.0mph /  4.8km/h 66% 0.00in /  0mm
23:14 67.5 °F /  19.7 °C 55.8 °F /  13.2 °C 29.81in /  1009.4hPa ESE 3.0mph /  4.8km/h 3.0mph /  4.8km/h 66% 0.00in /  0mm
23:19 67.3 °F /  19.6 °C 56.0 °F /  13.3 °C 29.81in /  1009.4hPa ESE 2.0mph /  3.2km/h 3.0mph /  4.8km/h 67% 0.00in /  0mm
23:24 66.9 °F /  19.4 °C 55.6 °F /  13.1 °C 29.81in /  1009.4hPa ESE 2.0mph /  3.2km/h 4.0mph /  6.4km/h 67% 0.00in /  0mm
23:29 66.9 °F /  19.4 °C 56.0 °F /  13.3 °C 29.82in /  1009.7hPa SE 2.0mph /  3.2km/h 3.0mph /  4.8km/h 68% 0.00in /  0mm
23:34 67.0 °F /  19.4 °C 56.1 °F /  13.4 °C 29.81in /  1009.4hPa ESE 2.0mph /  3.2km/h 4.0mph /  6.4km/h 68% 0.00in /  0mm
23:39 67.1 °F /  19.5 °C 56.2 °F /  13.4 °C 29.81in /  1009.4hPa ESE 3.0mph /  4.8km/h 3.0mph /  4.8km/h 68% 0.00in /  0mm
23:40 67.1 °F /  19.5 °C 56.2 °F /  13.4 °C 29.81in /  1009.4hPa SE 2.0mph /  3.2km/h 3.0mph /  4.8km/h 68% 0.00in /  0mm
23:45 66.8 °F /  19.3 °C 56.3 °F /  13.5 °C 29.81in /  1009.4hPa SE 1.0mph /  1.6km/h 2.0mph /  3.2km/h 69% 0.00in /  0mm
Compliments of Weather Underground